Ana Sayfa
METAR-TAF:

METAR-TAF

Havaalanları :

Hakkâri Yüksekova Selahaddin Eyyubi Havalimanı

Yüksekova, Türkiye

Enlem: 37-33-06N, Boylam: 44-14-01E, yükseklik: 1950 m

Güncel hava durumu gözlemi

Rapor saat 10:50 UTC de 7 saat ve 4 dakika önce yapıldı.
Rüzgar güneydan 13 kt, güney/güneydoğu ve batı arasında değişken
Sıcaklık 31°C
Nem 15%
Basınç 1012 hPa
Görüş mesafesi 10 km veya daha fazla
1500 m altında bulut yok ve kümülonimbus yok

METAR: LTCW 181050Z 19013KT 160V260 CAVOK 31/01 Q1012

Saat: 20:54 (17:54 UTC)

Tahmin

Rapor saat 13:40 UTC de 4 saat ve 14 dakika önce yapıldı.
Ayın 18'si saat 15 UTC'den ayın 18'si saat 24 UTC'ye kadar geçerli Tahmin
Rüzgar güney/güneybatıdan 8 kt
Görüş mesafesi 10 km veya daha fazla
1500 m altında bulut yok ve kümülonimbus yok

TAF: LTCW 181340Z 1815/1824 20008KT CAVOK

4.000'den fazla havaalanı için hava durumu gözlemleri ve tahminleri (METAR ve TAF raporları).

Kullanılabilir istasyonlar harita üzerinde sarı ve kırmızı noktalarla gösterilir.

İstasyonun adını görmek için fareyi noktanın üzerinde gezdirin.

Sonrasında hava gözlem ve tahminlerini görmek için tıklayın.

Haritayı değiştirmek için: yaklaştırmak için siyah artı işaretli yeşil düğmeye ve uzaklaştırmak için de eksi işaretli düğmeye hızla tıklayın; bitişik haritalar için yeşil okları kullanın.


METAR-TAF: